AEE322 LGAV-LGAL
Flight info
| Callsign | AEE322 |
|---|---|
| Flight time | 0h 37m |
| Altitude | 27000 |
| Route | LGAV/03R N0437F270 DCT KRO UG33 LMO DCT LGAL/07 |
| Aircraft | A320/M-SDE3/L |
Departure
| Time | 2026-05-05 19:38 |
|---|---|
| Airport | Athens Eleftherios Venizelos International Airport (LGAV) |
Arrival
| Time | 2026-05-05 20:16 |
|---|---|
| Airport | Alexandroupoli Democritus Airport (LGAL) |
| Time | Latitude | Longitude | Altitude | Speed | Heading |
|---|---|---|---|---|---|
| 2026-05-05 19:22 | 37.93794 | 23.95020 | 301 ft | 0 kts | 306° |
| 2026-05-05 19:32 | 37.93793 | 23.95022 | 304 ft | 2 kts | 306° |
| 2026-05-05 19:32 | 37.93783 | 23.95039 | 301 ft | 2 kts | 306° |
| 2026-05-05 19:32 | 37.93773 | 23.95057 | 300 ft | 2 kts | 306° |
| 2026-05-05 19:32 | 37.93763 | 23.95074 | 303 ft | 2 kts | 304° |
| 2026-05-05 19:33 | 37.93759 | 23.95093 | 300 ft | 2 kts | 234° |
| 2026-05-05 19:33 | 37.93758 | 23.95095 | 300 ft | 1 kts | 222° |
| 2026-05-05 19:33 | 37.93747 | 23.95082 | 301 ft | 3 kts | 222° |
| 2026-05-05 19:33 | 37.93724 | 23.95060 | 302 ft | 5 kts | 212° |
| 2026-05-05 19:34 | 37.93674 | 23.95023 | 300 ft | 11 kts | 207° |
| 2026-05-05 19:34 | 37.93586 | 23.95042 | 300 ft | 16 kts | 166° |
| 2026-05-05 19:34 | 37.93474 | 23.94969 | 302 ft | 21 kts | 215° |
| 2026-05-05 19:35 | 37.93225 | 23.94879 | 301 ft | 21 kts | 216° |
| 2026-05-05 19:35 | 37.93104 | 23.94762 | 300 ft | 23 kts | 216° |
| 2026-05-05 19:35 | 37.92971 | 23.94639 | 302 ft | 24 kts | 217° |
| 2026-05-05 19:35 | 37.92832 | 23.94506 | 302 ft | 26 kts | 216° |
| 2026-05-05 19:36 | 37.92682 | 23.94372 | 304 ft | 27 kts | 216° |
| 2026-05-05 19:36 | 37.92563 | 23.94251 | 303 ft | 16 kts | 214° |
| 2026-05-05 19:36 | 37.92469 | 23.94174 | 303 ft | 17 kts | 190° |
| 2026-05-05 19:36 | 37.92411 | 23.94267 | 306 ft | 15 kts | 89° |
| 2026-05-05 19:37 | 37.92430 | 23.94390 | 309 ft | 14 kts | 57° |
| 2026-05-05 19:37 | 37.92490 | 23.94457 | 310 ft | 0 kts | 37° |
| 2026-05-05 19:37 | 37.92623 | 23.94583 | 305 ft | 52 kts | 37° |
| 2026-05-05 19:38 | 37.93091 | 23.95026 | 295 ft | 112 kts | 37° |
| 2026-05-05 19:38 | 37.93846 | 23.95745 | 280 ft | 157 kts | 37° |
| 2026-05-05 19:38 | 37.94760 | 23.96586 | 771 ft | 160 kts | 36° |
| 2026-05-05 19:38 | 37.95637 | 23.97419 | 1416 ft | 159 kts | 36° |
| 2026-05-05 19:39 | 37.96518 | 23.98261 | 2047 ft | 158 kts | 36° |
| 2026-05-05 19:39 | 37.97456 | 23.99141 | 2350 ft | 177 kts | 36° |
| 2026-05-05 19:39 | 37.98488 | 24.00119 | 2685 ft | 193 kts | 36° |
| 2026-05-05 19:39 | 37.99619 | 24.01175 | 3018 ft | 210 kts | 30° |
| 2026-05-05 19:40 | 38.00980 | 24.02023 | 3338 ft | 228 kts | 24° |
| 2026-05-05 19:40 | 38.02490 | 24.02929 | 3701 ft | 250 kts | 24° |
| 2026-05-05 19:40 | 38.04084 | 24.03900 | 4467 ft | 257 kts | 25° |
| 2026-05-05 19:40 | 38.05705 | 24.04894 | 5374 ft | 260 kts | 25° |
| 2026-05-05 19:41 | 38.07335 | 24.05906 | 6279 ft | 261 kts | 25° |
| 2026-05-05 19:41 | 38.08968 | 24.06933 | 7174 ft | 262 kts | 25° |
| 2026-05-05 19:41 | 38.10605 | 24.07959 | 8066 ft | 262 kts | 25° |
| 2026-05-05 19:41 | 38.12249 | 24.08979 | 8921 ft | 265 kts | 24° |
| 2026-05-05 19:42 | 38.13920 | 24.10006 | 9723 ft | 268 kts | 24° |
| 2026-05-05 19:42 | 38.15582 | 24.11036 | 10444 ft | 274 kts | 24° |
| 2026-05-05 19:42 | 38.17364 | 24.12148 | 10648 ft | 297 kts | 24° |
| 2026-05-05 19:42 | 38.19290 | 24.13351 | 10816 ft | 320 kts | 24° |
| 2026-05-05 19:43 | 38.21340 | 24.14628 | 11206 ft | 332 kts | 24° |
| 2026-05-05 19:43 | 38.23429 | 24.15930 | 11811 ft | 337 kts | 24° |
| 2026-05-05 19:43 | 38.25551 | 24.17257 | 12473 ft | 341 kts | 24° |
| 2026-05-05 19:43 | 38.27690 | 24.18596 | 13134 ft | 344 kts | 24° |
| 2026-05-05 19:44 | 38.29851 | 24.19949 | 13792 ft | 348 kts | 24° |
| 2026-05-05 19:44 | 38.32035 | 24.21316 | 14395 ft | 351 kts | 24° |
| 2026-05-05 19:44 | 38.34241 | 24.22695 | 14965 ft | 354 kts | 23° |
| 2026-05-05 19:44 | 38.36460 | 24.24082 | 15526 ft | 357 kts | 23° |
| 2026-05-05 19:45 | 38.38697 | 24.25478 | 16091 ft | 360 kts | 23° |
| 2026-05-05 19:45 | 38.40956 | 24.26889 | 16630 ft | 363 kts | 23° |
| 2026-05-05 19:45 | 38.43230 | 24.28309 | 17193 ft | 365 kts | 22° |
| 2026-05-05 19:45 | 38.45524 | 24.29742 | 17762 ft | 368 kts | 22° |
| 2026-05-05 19:46 | 38.47834 | 24.31190 | 18317 ft | 371 kts | 22° |
| 2026-05-05 19:46 | 38.50159 | 24.32655 | 18812 ft | 374 kts | 22° |
| 2026-05-05 19:46 | 38.52505 | 24.34132 | 19315 ft | 377 kts | 22° |
| 2026-05-05 19:46 | 38.54868 | 24.35615 | 19835 ft | 379 kts | 22° |
| 2026-05-05 19:47 | 38.57246 | 24.37105 | 20336 ft | 382 kts | 22° |
| 2026-05-05 19:47 | 38.59640 | 24.38610 | 20833 ft | 385 kts | 21° |
| 2026-05-05 19:47 | 38.62015 | 24.40110 | 21319 ft | 387 kts | 21° |
| 2026-05-05 19:47 | 38.64441 | 24.41643 | 21779 ft | 389 kts | 21° |
| 2026-05-05 19:48 | 38.66878 | 24.43181 | 22222 ft | 392 kts | 21° |
| 2026-05-05 19:48 | 38.69331 | 24.44729 | 22672 ft | 394 kts | 21° |
| 2026-05-05 19:48 | 38.71801 | 24.46287 | 23164 ft | 396 kts | 21° |
| 2026-05-05 19:48 | 38.74272 | 24.47850 | 23588 ft | 399 kts | 21° |
| 2026-05-05 19:49 | 38.76789 | 24.49439 | 23710 ft | 408 kts | 21° |
| 2026-05-05 19:49 | 38.78486 | 24.50510 | 23784 ft | 413 kts | 21° |
| 2026-05-05 19:49 | 38.81983 | 24.52715 | 23943 ft | 424 kts | 21° |
| 2026-05-05 19:49 | 38.84652 | 24.54408 | 24061 ft | 431 kts | 21° |
| 2026-05-05 19:50 | 38.87357 | 24.56121 | 24178 ft | 437 kts | 21° |
| 2026-05-05 19:50 | 38.90104 | 24.57863 | 24303 ft | 443 kts | 21° |
| 2026-05-05 19:50 | 38.92886 | 24.59635 | 24414 ft | 449 kts | 21° |
| 2026-05-05 19:50 | 38.95713 | 24.61438 | 24809 ft | 456 kts | 21° |
| 2026-05-05 19:51 | 38.98568 | 24.63256 | 25317 ft | 460 kts | 21° |
| 2026-05-05 19:51 | 39.01439 | 24.65087 | 25822 ft | 463 kts | 21° |
| 2026-05-05 19:51 | 39.04325 | 24.66930 | 26122 ft | 464 kts | 21° |
| 2026-05-05 19:51 | 39.07219 | 24.68780 | 26461 ft | 464 kts | 21° |
| 2026-05-05 19:52 | 39.10108 | 24.70631 | 26871 ft | 463 kts | 21° |
| 2026-05-05 19:52 | 39.12981 | 24.72476 | 27037 ft | 461 kts | 21° |
| 2026-05-05 19:52 | 39.15838 | 24.74312 | 27067 ft | 455 kts | 21° |
| 2026-05-05 19:52 | 39.18663 | 24.76126 | 27066 ft | 453 kts | 21° |
| 2026-05-05 19:53 | 39.21480 | 24.77934 | 27067 ft | 452 kts | 21° |
| 2026-05-05 19:53 | 39.24292 | 24.79737 | 27068 ft | 452 kts | 21° |
| 2026-05-05 19:53 | 39.27067 | 24.81522 | 27069 ft | 451 kts | 21° |
| 2026-05-05 19:53 | 39.29876 | 24.83331 | 27066 ft | 451 kts | 21° |
| 2026-05-05 19:54 | 39.32691 | 24.85144 | 27067 ft | 451 kts | 21° |
| 2026-05-05 19:54 | 39.35496 | 24.86952 | 27065 ft | 451 kts | 21° |
| 2026-05-05 19:54 | 39.38308 | 24.88764 | 27064 ft | 451 kts | 21° |
| 2026-05-05 19:54 | 39.41112 | 24.90573 | 27061 ft | 451 kts | 21° |
| 2026-05-05 19:55 | 39.43922 | 24.92389 | 27068 ft | 451 kts | 21° |
| 2026-05-05 19:55 | 39.46722 | 24.94202 | 27068 ft | 451 kts | 21° |
| 2026-05-05 19:55 | 39.49526 | 24.96020 | 27064 ft | 450 kts | 21° |
| 2026-05-05 19:55 | 39.52324 | 24.97835 | 27060 ft | 450 kts | 21° |
| 2026-05-05 19:56 | 39.55124 | 24.99650 | 27062 ft | 450 kts | 21° |
| 2026-05-05 19:56 | 39.57926 | 25.01469 | 27079 ft | 450 kts | 21° |
| 2026-05-05 19:56 | 39.60728 | 25.03292 | 27069 ft | 450 kts | 21° |
| 2026-05-05 19:56 | 39.63525 | 25.05117 | 27065 ft | 450 kts | 22° |
| 2026-05-05 19:57 | 39.66332 | 25.06949 | 26786 ft | 452 kts | 22° |
| 2026-05-05 19:57 | 39.68189 | 25.08160 | 26596 ft | 452 kts | 22° |
| 2026-05-05 19:57 | 39.71880 | 25.10574 | 26256 ft | 433 kts | 22° |
| 2026-05-05 19:57 | 39.74514 | 25.12302 | 26008 ft | 418 kts | 22° |
| 2026-05-05 19:58 | 39.77083 | 25.13983 | 25761 ft | 409 kts | 21° |
| 2026-05-05 19:58 | 39.79586 | 25.15619 | 25535 ft | 406 kts | 22° |
| 2026-05-05 19:58 | 39.82141 | 25.17288 | 25287 ft | 406 kts | 22° |
| 2026-05-05 19:58 | 39.84628 | 25.18913 | 25048 ft | 404 kts | 22° |
| 2026-05-05 19:59 | 39.87138 | 25.20553 | 24809 ft | 403 kts | 22° |
| 2026-05-05 19:59 | 39.89641 | 25.22192 | 24571 ft | 402 kts | 22° |
| 2026-05-05 19:59 | 39.92133 | 25.23832 | 24342 ft | 401 kts | 23° |
| 2026-05-05 19:59 | 39.94583 | 25.25554 | 24106 ft | 401 kts | 25° |
| 2026-05-05 20:00 | 39.96999 | 25.27366 | 23774 ft | 397 kts | 26° |
| 2026-05-05 20:00 | 39.99360 | 25.29204 | 23109 ft | 394 kts | 27° |
| 2026-05-05 20:00 | 40.01699 | 25.31044 | 22516 ft | 390 kts | 27° |
| 2026-05-05 20:00 | 40.04009 | 25.32853 | 21949 ft | 386 kts | 27° |
| 2026-05-05 20:01 | 40.06315 | 25.34636 | 21386 ft | 382 kts | 27° |
| 2026-05-05 20:01 | 40.08600 | 25.36388 | 20839 ft | 379 kts | 27° |
| 2026-05-05 20:01 | 40.10877 | 25.38122 | 20321 ft | 376 kts | 27° |
| 2026-05-05 20:01 | 40.13131 | 25.39833 | 19798 ft | 374 kts | 28° |
| 2026-05-05 20:02 | 40.15372 | 25.41534 | 19297 ft | 371 kts | 28° |
| 2026-05-05 20:02 | 40.17590 | 25.43222 | 18787 ft | 368 kts | 28° |
| 2026-05-05 20:02 | 40.19796 | 25.44904 | 18270 ft | 366 kts | 28° |
| 2026-05-05 20:02 | 40.21983 | 25.46576 | 17709 ft | 362 kts | 28° |
| 2026-05-05 20:03 | 40.24147 | 25.48235 | 17204 ft | 358 kts | 28° |
| 2026-05-05 20:03 | 40.26285 | 25.49875 | 16669 ft | 355 kts | 28° |
| 2026-05-05 20:03 | 40.28406 | 25.51500 | 16134 ft | 351 kts | 28° |
| 2026-05-05 20:03 | 40.30509 | 25.53112 | 15593 ft | 349 kts | 28° |
| 2026-05-05 20:04 | 40.32609 | 25.54727 | 14827 ft | 353 kts | 28° |
| 2026-05-05 20:04 | 40.34718 | 25.56349 | 14269 ft | 350 kts | 28° |
| 2026-05-05 20:04 | 40.36807 | 25.57963 | 13734 ft | 347 kts | 28° |
| 2026-05-05 20:04 | 40.38905 | 25.59577 | 12711 ft | 354 kts | 28° |
| 2026-05-05 20:05 | 40.41046 | 25.61217 | 11869 ft | 356 kts | 28° |
| 2026-05-05 20:05 | 40.43148 | 25.62831 | 11287 ft | 352 kts | 27° |
| 2026-05-05 20:05 | 40.45244 | 25.64447 | 10835 ft | 346 kts | 27° |
| 2026-05-05 20:05 | 40.47264 | 25.66011 | 10709 ft | 329 kts | 27° |
| 2026-05-05 20:06 | 40.49191 | 25.67509 | 10587 ft | 314 kts | 27° |
| 2026-05-05 20:06 | 40.51033 | 25.68943 | 10473 ft | 302 kts | 27° |
| 2026-05-05 20:06 | 40.52805 | 25.70323 | 10336 ft | 290 kts | 27° |
| 2026-05-05 20:06 | 40.54508 | 25.71647 | 10220 ft | 279 kts | 27° |
| 2026-05-05 20:07 | 40.56156 | 25.72924 | 10094 ft | 270 kts | 26° |
| 2026-05-05 20:07 | 40.57761 | 25.74166 | 9837 ft | 266 kts | 26° |
| 2026-05-05 20:07 | 40.58817 | 25.74980 | 9615 ft | 265 kts | 26° |
| 2026-05-05 20:07 | 40.60404 | 25.76205 | 9262 ft | 264 kts | 27° |
| 2026-05-05 20:08 | 40.61986 | 25.77428 | 8911 ft | 263 kts | 27° |
| 2026-05-05 20:08 | 40.63593 | 25.78558 | 8557 ft | 260 kts | 15° |
| 2026-05-05 20:08 | 40.65351 | 25.78603 | 8218 ft | 255 kts | 341° |
| 2026-05-05 20:08 | 40.66811 | 25.77304 | 7842 ft | 259 kts | 313° |
| 2026-05-05 20:09 | 40.67932 | 25.75425 | 7467 ft | 261 kts | 312° |
| 2026-05-05 20:09 | 40.69125 | 25.73676 | 7341 ft | 252 kts | 317° |
| 2026-05-05 20:09 | 40.70390 | 25.72133 | 7218 ft | 243 kts | 322° |
| 2026-05-05 20:09 | 40.71697 | 25.70784 | 7036 ft | 237 kts | 326° |
| 2026-05-05 20:10 | 40.72367 | 25.70183 | 6689 ft | 242 kts | 331° |
| 2026-05-05 20:10 | 40.73919 | 25.69187 | 6052 ft | 255 kts | 333° |
| 2026-05-05 20:10 | 40.75497 | 25.68047 | 5415 ft | 267 kts | 332° |
| 2026-05-05 20:10 | 40.77158 | 25.67001 | 5219 ft | 260 kts | 339° |
| 2026-05-05 20:11 | 40.78863 | 25.66742 | 5083 ft | 242 kts | 13° |
| 2026-05-05 20:11 | 40.80224 | 25.67867 | 4953 ft | 229 kts | 53° |
| 2026-05-05 20:11 | 40.80832 | 25.69739 | 4735 ft | 220 kts | 74° |
| 2026-05-05 20:11 | 40.81113 | 25.71708 | 4348 ft | 217 kts | 79° |
| 2026-05-05 20:12 | 40.81344 | 25.73667 | 3900 ft | 216 kts | 79° |
| 2026-05-05 20:12 | 40.81598 | 25.75562 | 3738 ft | 202 kts | 78° |
| 2026-05-05 20:12 | 40.81871 | 25.77317 | 3614 ft | 189 kts | 77° |
| 2026-05-05 20:12 | 40.82153 | 25.78948 | 3537 ft | 174 kts | 76° |
| 2026-05-05 20:13 | 40.82421 | 25.80391 | 3483 ft | 156 kts | 75° |
| 2026-05-05 20:13 | 40.82673 | 25.81786 | 3057 ft | 157 kts | 76° |
| 2026-05-05 20:13 | 40.82933 | 25.83224 | 2475 ft | 163 kts | 77° |
| 2026-05-05 20:13 | 40.83208 | 25.84659 | 2006 ft | 161 kts | 75° |
| 2026-05-05 20:14 | 40.83491 | 25.86053 | 1659 ft | 153 kts | 75° |
| 2026-05-05 20:14 | 40.83773 | 25.87396 | 1267 ft | 150 kts | 74° |
| 2026-05-05 20:14 | 40.84060 | 25.88688 | 1006 ft | 145 kts | 72° |
| 2026-05-05 20:14 | 40.84338 | 25.89960 | 689 ft | 144 kts | 75° |
| 2026-05-05 20:15 | 40.84593 | 25.91226 | 480 ft | 143 kts | 73° |
| 2026-05-05 20:15 | 40.84879 | 25.92495 | 331 ft | 145 kts | 73° |
| 2026-05-05 20:15 | 40.85151 | 25.93772 | 103 ft | 144 kts | 72° |
| 2026-05-05 20:15 | 40.85440 | 25.95010 | 23 ft | 134 kts | 72° |
| 2026-05-05 20:16 | 40.85668 | 25.96012 | 28 ft | 90 kts | 73° |
| 2026-05-05 20:16 | 40.85809 | 25.96604 | 26 ft | 47 kts | 73° |
| 2026-05-05 20:16 | 40.85840 | 25.96756 | 26 ft | 4 kts | 136° |
| 2026-05-05 20:16 | 40.85828 | 25.96721 | 27 ft | 12 kts | 257° |
| 2026-05-05 20:17 | 40.85775 | 25.96484 | 24 ft | 40 kts | 255° |
| 2026-05-05 20:17 | 40.85692 | 25.96130 | 27 ft | 39 kts | 252° |
| 2026-05-05 20:17 | 40.85615 | 25.95799 | 26 ft | 37 kts | 253° |
| 2026-05-05 20:17 | 40.85541 | 25.95471 | 23 ft | 37 kts | 251° |
| 2026-05-05 20:18 | 40.85464 | 25.95137 | 22 ft | 39 kts | 252° |
| 2026-05-05 20:18 | 40.85463 | 25.94896 | 18 ft | 15 kts | 324° |
| 2026-05-05 20:18 | 40.85522 | 25.94770 | 18 ft | 17 kts | 298° |
| 2026-05-05 20:18 | 40.85585 | 25.94630 | 17 ft | 19 kts | 313° |
| 2026-05-05 20:19 | 40.85597 | 25.94614 | 17 ft | 0 kts | 313° |